Time;durP1;ratioP1;P1;durP2;ratioP2;P2;SDS_P1;SDS_P2;PMS_P1;PMS_P2;Temp;Humidity;BMP_temperature;BMP_pressure;BME280_temperature;BME280_humidity;BME280_pressure;Samples;Min_cycle;Max_cycle;Signal;HPM_P1;HPM_P2
2024/01/25 00:01:15;;;;;;;0.08;0.08;;;8.50;99.90;;;;;;4987812;28;20097;-91
2024/01/25 00:03:41;;;;;;;0.10;0.10;;;;;;;;;;4995148;28;20112;-91
2024/01/25 00:06:07;;;;;;;0.00;0.00;;;;;;;;;;4990989;28;20030;-88
2024/01/25 00:08:34;;;;;;;0.00;0.00;;;;;;;;;;4988782;28;20370;-90
2024/01/25 00:11:00;;;;;;;0.10;0.10;;;;;;;;;;4994455;28;20043;-90
2024/01/25 00:13:26;;;;;;;0.10;0.10;;;;;;;;;;4992842;28;20029;-89
2024/01/25 00:15:52;;;;;;;0.10;0.10;;;;;;;;;;4993094;28;20126;-90
2024/01/25 00:18:18;;;;;;;0.10;0.10;;;;;;;;;;4992553;28;20026;-91
2024/01/25 00:20:43;;;;;;;0.10;0.10;;;8.50;99.90;;;;;;4991066;28;20034;-90
2024/01/25 00:23:09;;;;;;;0.00;0.00;;;8.50;99.90;;;;;;4996111;28;20035;-89
2024/01/25 00:25:35;;;;;;;0.10;0.10;;;;;;;;;;4996155;28;20481;-90
2024/01/25 00:28:01;;;;;;;0.10;0.10;;;;;;;;;;4994202;28;20050;-91
2024/01/25 00:30:27;;;;;;;0.00;0.00;;;;;;;;;;4993179;28;20404;-90
2024/01/25 00:32:53;;;;;;;0.10;0.10;;;;;;;;;;4999333;28;20049;-89
2024/01/25 00:35:18;;;;;;;0.10;0.10;;;8.50;99.90;;;;;;4996634;28;20034;-90
2024/01/25 00:37:44;;;;;;;0.00;0.00;;;;;;;;;;4989841;28;20032;-91
2024/01/25 00:40:13;;;;;;;0.03;0.03;;;;;;;;;;4990871;28;20042;-89
2024/01/25 00:42:45;;;;;;;0.10;0.10;;;8.40;99.90;;;;;;4997879;28;20030;-89
2024/01/25 00:45:11;;;;;;;0.10;0.10;;;8.40;99.90;;;;;;4988019;28;20441;-90
2024/01/25 00:47:38;;;;;;;0.10;0.10;;;8.50;99.90;;;;;;4992592;28;20041;-91
2024/01/25 00:50:04;;;;;;;0.10;0.10;;;8.70;99.90;;;;;;4995996;28;20026;-90
2024/01/25 00:52:30;;;;;;;0.00;0.00;;;;;;;;;;4989686;28;20057;-90
2024/01/25 00:54:56;;;;;;;0.08;0.08;;;;;;;;;;4994884;28;20466;-90
2024/01/25 00:57:23;;;;;;;0.10;0.10;;;;;;;;;;4995086;28;20023;-89
2024/01/25 00:59:49;;;;;;;0.10;0.10;;;;;;;;;;4986407;28;20030;-91
2024/01/25 01:02:15;;;;;;;0.10;0.10;;;;;;;;;;4988007;28;20168;-90
2024/01/25 01:04:41;;;;;;;0.10;0.10;;;;;;;;;;4997399;28;20034;-90
2024/01/25 01:07:07;;;;;;;0.00;0.00;;;;;;;;;;5006898;28;20038;-91
2024/01/25 01:09:33;;;;;;;0.00;0.00;;;;;;;;;;4997283;28;20104;-91
2024/01/25 01:11:59;;;;;;;0.10;0.10;;;;;;;;;;4992861;28;20038;-90
2024/01/25 01:14:25;;;;;;;0.10;0.10;;;;;;;;;;4990205;28;20030;-90
2024/01/25 01:16:51;;;;;;;0.00;0.00;;;;;;;;;;4990987;28;20054;-91
2024/01/25 01:19:17;;;;;;;0.10;0.10;;;;;;;;;;4994287;28;20385;-91
2024/01/25 01:21:43;;;;;;;0.10;0.10;;;;;;;;;;4993381;28;20053;-90
2024/01/25 01:24:12;;;;;;;0.00;0.00;;;8.50;99.90;;;;;;4990806;28;20040;-90
2024/01/25 01:26:38;;;;;;;0.10;0.10;;;;;;;;;;4995565;28;20049;-90
2024/01/25 01:29:04;;;;;;;0.10;0.10;;;8.30;99.90;;;;;;4991592;28;20481;-89
2024/01/25 01:31:30;;;;;;;0.10;0.10;;;;;;;;;;4988412;28;20034;-90
2024/01/25 01:33:57;;;;;;;0.10;0.10;;;;;;;;;;4996489;28;20096;-91
2024/01/25 01:36:23;;;;;;;0.10;0.10;;;;;;;;;;4992932;28;20033;-90
2024/01/25 01:38:49;;;;;;;0.10;0.10;;;;;;;;;;4995370;28;20026;-89
2024/01/25 01:41:15;;;;;;;0.10;0.10;;;;;;;;;;4990023;28;20174;-90
2024/01/25 01:43:41;;;;;;;0.10;0.10;;;;;;;;;;4990216;28;20035;-90
2024/01/25 01:46:18;;;;;;;0.10;0.10;;;8.40;99.90;;;;;;5004464;28;20049;-90
2024/01/25 01:48:44;;;;;;;0.10;0.10;;;;;;;;;;4989156;28;20041;-90
2024/01/25 01:51:10;;;;;;;0.10;0.10;;;;;;;;;;4989450;28;20197;-90
2024/01/25 01:53:36;;;;;;;0.10;0.10;;;8.40;99.90;;;;;;4991358;28;20031;-90
2024/01/25 01:56:03;;;;;;;0.10;0.10;;;;;;;;;;4994934;28;20030;-90
2024/01/25 01:58:29;;;;;;;0.00;0.00;;;;;;;;;;4992191;28;20113;-89
2024/01/25 02:00:56;;;;;;;0.00;0.00;;;8.40;99.90;;;;;;4989676;28;20187;-91
2024/01/25 02:03:22;;;;;;;0.10;0.10;;;;;;;;;;4987331;28;20031;-90
2024/01/25 02:05:48;;;;;;;0.08;0.08;;;;;;;;;;4994640;28;20097;-90
2024/01/25 02:08:14;;;;;;;0.00;0.00;;;8.40;99.90;;;;;;4997429;28;20034;-90
2024/01/25 02:10:40;;;;;;;0.10;0.10;;;;;;;;;;4990997;28;20390;-90
2024/01/25 02:13:06;;;;;;;0.10;0.10;;;;;;;;;;5005872;28;20117;-90
2024/01/25 02:15:32;;;;;;;0.10;0.10;;;;;;;;;;4990635;28;20473;-90
2024/01/25 02:17:58;;;;;;;0.10;0.10;;;;;;;;;;4991387;28;20037;-90
2024/01/25 02:20:25;;;;;;;0.10;0.10;;;;;;;;;;4992794;28;20045;-90
2024/01/25 02:22:50;;;;;;;0.10;0.10;;;;;;;;;;4988979;28;20473;-90
2024/01/25 02:25:16;;;;;;;0.10;0.10;;;;;;;;;;5005377;28;20080;-90
2024/01/25 02:27:42;;;;;;;0.10;0.10;;;;;;;;;;4993160;28;20080;-90
2024/01/25 02:30:08;;;;;;;0.10;0.10;;;8.10;99.90;;;;;;4988628;28;20544;-90
2024/01/25 02:32:34;;;;;;;0.10;0.10;;;;;;;;;;4995137;28;20034;-90
2024/01/25 02:35:00;;;;;;;0.00;0.00;;;;;;;;;;4991887;28;20039;-91
2024/01/25 02:37:27;;;;;;;0.00;0.00;;;;;;;;;;5006103;28;20122;-90
2024/01/25 02:39:53;;;;;;;0.10;0.10;;;;;;;;;;5008625;28;20057;-91
2024/01/25 02:42:19;;;;;;;0.10;0.10;;;;;;;;;;4995369;28;20049;-90
2024/01/25 02:44:45;;;;;;;0.00;0.00;;;;;;;;;;4991736;28;20081;-90
2024/01/25 02:47:11;;;;;;;0.00;0.00;;;;;;;;;;4997793;28;20030;-90
2024/01/25 02:49:37;;;;;;;0.10;0.10;;;;;;;;;;4995328;28;20105;-91
2024/01/25 02:52:03;;;;;;;0.10;0.10;;;;;;;;;;4994201;28;20062;-92
2024/01/25 02:54:29;;;;;;;0.10;0.10;;;;;;;;;;4993704;28;20098;-90
2024/01/25 02:56:55;;;;;;;0.03;0.03;;;;;;;;;;4995966;28;20466;-90
2024/01/25 02:59:21;;;;;;;0.00;0.00;;;;;;;;;;4988474;28;20117;-90
2024/01/25 03:01:47;;;;;;;0.00;0.00;;;;;;;;;;5008602;28;20100;-91
2024/01/25 03:04:13;;;;;;;0.10;0.10;;;;;;;;;;4986952;28;20485;-91
2024/01/25 03:06:39;;;;;;;0.10;0.10;;;;;;;;;;4991957;28;20065;-90
2024/01/25 03:09:05;;;;;;;0.10;0.10;;;;;;;;;;4992345;28;20034;-91
2024/01/25 03:11:31;;;;;;;0.10;0.10;;;;;;;;;;4993262;28;20473;-90
2024/01/25 03:13:57;;;;;;;0.10;0.10;;;;;;;;;;4996100;28;20037;-90
2024/01/25 03:16:23;;;;;;;0.10;0.10;;;;;;;;;;4993942;28;20274;-90
2024/01/25 03:18:49;;;;;;;0.10;0.10;;;;;;;;;;4991740;28;20038;-89
2024/01/25 03:21:15;;;;;;;0.10;0.10;;;;;;;;;;4995986;28;20088;-91
2024/01/25 03:23:41;;;;;;;0.10;0.10;;;8.00;99.90;;;;;;4991427;28;20023;-91
2024/01/25 03:26:07;;;;;;;0.10;0.10;;;;;;;;;;4994431;28;20030;-91
2024/01/25 03:28:34;;;;;;;0.10;0.10;;;7.90;99.90;;;;;;4996258;28;20046;-90
2024/01/25 04:04:38;;;;;;;0.10;0.10;;;;;;;;;;4974909;28;20406;-93
2024/01/25 04:07:04;;;;;;;0.00;0.00;;;;;;;;;;4976682;28;20110;-93
2024/01/25 04:09:30;;;;;;;0.10;0.10;;;;;;;;;;4974519;28;20053;-94
2024/01/25 04:11:56;;;;;;;0.00;0.00;;;;;;;;;;4972954;28;20038;-93
2024/01/25 04:14:22;;;;;;;0.10;0.10;;;;;;;;;;5008131;23;20037;-91
2024/01/25 04:16:49;;;;;;;0.10;0.10;;;7.40;99.90;;;;;;5012330;28;20057;-90
2024/01/25 04:19:15;;;;;;;0.10;0.10;;;;;;;;;;5012403;28;20022;-90
2024/01/25 04:21:41;;;;;;;0.10;0.10;;;;;;;;;;5012777;28;20028;-91
2024/01/25 04:24:07;;;;;;;0.10;0.10;;;;;;;;;;5018279;28;20049;-90
2024/01/25 04:26:33;;;;;;;0.10;0.10;;;;;;;;;;5019108;28;20503;-90
2024/01/25 04:28:59;;;;;;;0.10;0.10;;;;;;;;;;5019948;28;20481;-90
2024/01/25 04:31:25;;;;;;;0.10;0.10;;;;;;;;;;5017651;28;20053;-90
2024/01/25 04:33:51;;;;;;;0.10;0.10;;;;;;;;;;5013354;28;20424;-91
2024/01/25 04:36:17;;;;;;;0.00;0.00;;;;;;;;;;5012965;28;20022;-90
2024/01/25 04:38:42;;;;;;;0.10;0.10;;;;;;;;;;5012933;28;20085;-89
2024/01/25 04:41:08;;;;;;;0.10;0.10;;;6.90;99.90;;;;;;5009723;28;20477;-90
2024/01/25 04:43:36;;;;;;;0.10;0.10;;;7.00;99.90;;;;;;5012075;28;20034;-89
2024/01/25 04:46:02;;;;;;;0.10;0.10;;;;;;;;;;5020000;28;20029;-91
2024/01/25 04:48:28;;;;;;;0.10;0.10;;;;;;;;;;5020629;28;20433;-91
2024/01/25 04:50:55;;;;;;;0.10;0.10;;;7.10;99.90;;;;;;5016106;28;20128;-90
2024/01/25 04:53:21;;;;;;;0.10;0.10;;;;;;;;;;5014279;28;20053;-90
2024/01/25 04:55:47;;;;;;;0.10;0.10;;;;;;;;;;5012206;28;20038;-90
2024/01/25 04:58:13;;;;;;;0.10;0.10;;;7.00;99.90;;;;;;5018140;28;20064;-90
2024/01/25 05:00:39;;;;;;;0.10;0.10;;;;;;;;;;5012229;28;20113;-90
2024/01/25 05:03:05;;;;;;;0.10;0.10;;;;;;;;;;5014148;28;20037;-90
2024/01/25 05:05:31;;;;;;;0.10;0.10;;;;;;;;;;5013471;28;20035;-90
2024/01/25 05:07:57;;;;;;;0.10;0.10;;;;;;;;;;5006215;28;20036;-90
2024/01/25 05:10:25;;;;;;;0.10;0.10;;;;;;;;;;5027272;28;20537;-91
2024/01/25 05:12:51;;;;;;;0.10;0.10;;;;;;;;;;5007931;28;20144;-90
2024/01/25 05:15:17;;;;;;;0.05;0.05;;;;;;;;;;5007127;28;20122;-90
2024/01/25 05:17:43;;;;;;;0.00;0.00;;;;;;;;;;5004231;28;20061;-91
2024/01/25 05:20:09;;;;;;;0.10;0.10;;;;;;;;;;5006120;28;20037;-90
2024/01/25 05:22:41;;;;;;;0.10;0.10;;;;;;;;;;5022164;28;20016;-90
2024/01/25 05:25:08;;;;;;;0.10;0.10;;;;;;;;;;5019672;28;20037;-90
2024/01/25 05:27:34;;;;;;;0.10;0.10;;;;;;;;;;5024057;28;20470;-90
2024/01/25 05:30:00;;;;;;;0.10;0.10;;;;;;;;;;5010829;28;20085;-90
2024/01/25 05:32:26;;;;;;;0.00;0.00;;;;;;;;;;5010955;28;20060;-91
2024/01/25 05:34:52;;;;;;;0.10;0.10;;;;;;;;;;5008980;28;20045;-89
2024/01/25 05:37:18;;;;;;;0.10;0.10;;;;;;;;;;5003308;28;20034;-89
2024/01/25 05:39:44;;;;;;;0.10;0.10;;;;;;;;;;5009293;28;20018;-90
2024/01/25 05:42:10;;;;;;;0.10;0.10;;;;;;;;;;5012773;28;20045;-90
2024/01/25 05:44:36;;;;;;;0.10;0.10;;;;;;;;;;5007213;28;20029;-90
2024/01/25 05:47:02;;;;;;;0.10;0.10;;;;;;;;;;5013545;28;20110;-89
2024/01/25 05:49:28;;;;;;;0.10;0.10;;;;;;;;;;5009367;28;20453;-91
2024/01/25 05:51:54;;;;;;;0.10;0.10;;;;;;;;;;5004529;28;20120;-89
2024/01/25 05:54:20;;;;;;;0.10;0.10;;;;;;;;;;5011598;28;20034;-90
2024/01/25 05:56:47;;;;;;;0.10;0.10;;;;;;;;;;5010915;28;20036;-86
2024/01/25 05:59:12;;;;;;;0.10;0.10;;;;;;;;;;4998643;28;20030;-91
2024/01/25 06:01:38;;;;;;;0.10;0.10;;;;;;;;;;5005175;28;20034;-90
2024/01/25 06:04:04;;;;;;;0.10;0.10;;;;;;;;;;5006541;28;20063;-90
2024/01/25 06:06:30;;;;;;;0.08;0.08;;;;;;;;;;5010838;28;20507;-89
2024/01/25 06:08:56;;;;;;;0.10;0.10;;;;;;;;;;5007934;28;20072;-91
2024/01/25 06:11:22;;;;;;;0.10;0.10;;;;;;;;;;5011152;28;20034;-89
2024/01/25 06:13:48;;;;;;;0.10;0.10;;;;;;;;;;5007935;28;20108;-91
2024/01/25 06:16:14;;;;;;;0.10;0.10;;;;;;;;;;5009306;28;20041;-91
2024/01/25 06:18:40;;;;;;;0.10;0.10;;;;;;;;;;5007046;28;20396;-90
2024/01/25 06:21:06;;;;;;;0.10;0.10;;;;;;;;;;5009322;28;20038;-91
2024/01/25 06:23:32;;;;;;;0.10;0.10;;;;;;;;;;5007839;28;20076;-91
2024/01/25 06:25:57;;;;;;;0.10;0.10;;;;;;;;;;5007424;28;20453;-90
2024/01/25 06:28:24;;;;;;;0.10;0.10;;;;;;;;;;5008722;28;20508;-90
2024/01/25 06:30:50;;;;;;;0.10;0.10;;;;;;;;;;5009608;28;20121;-91
2024/01/25 06:33:16;;;;;;;0.10;0.10;;;;;;;;;;5006821;28;20086;-91
2024/01/25 06:35:42;;;;;;;0.10;0.10;;;;;;;;;;5005943;28;20025;-90
2024/01/25 06:38:08;;;;;;;0.10;0.10;;;;;;;;;;5008279;28;20026;-92
2024/01/25 06:40:34;;;;;;;0.10;0.10;;;;;;;;;;5010858;28;20405;-91
2024/01/25 06:43:00;;;;;;;0.10;0.10;;;;;;;;;;5005763;28;20022;-89
2024/01/25 06:45:26;;;;;;;0.10;0.10;;;;;;;;;;5008429;28;20044;-91
2024/01/25 06:47:52;;;;;;;0.10;0.10;;;;;;;;;;5009189;28;20030;-91
2024/01/25 06:50:18;;;;;;;0.10;0.10;;;;;;;;;;5009871;28;20435;-91
2024/01/25 06:52:44;;;;;;;0.10;0.10;;;;;;;;;;5009777;28;20029;-91
2024/01/25 06:55:09;;;;;;;0.10;0.10;;;6.30;99.90;;;;;;5009425;28;20034;-91
2024/01/25 06:57:35;;;;;;;0.10;0.10;;;;;;;;;;5006353;28;20021;-90
2024/01/25 07:00:01;;;;;;;0.10;0.10;;;;;;;;;;5008459;28;20068;-92
2024/01/25 07:02:27;;;;;;;0.10;0.10;;;;;;;;;;5007014;28;20041;-91
2024/01/25 07:04:54;;;;;;;0.10;0.10;;;;;;;;;;5009494;28;20049;-91
2024/01/25 07:07:20;;;;;;;0.10;0.10;;;;;;;;;;5011085;28;20032;-91
2024/01/25 07:09:46;;;;;;;0.10;0.10;;;;;;;;;;5007736;28;20026;-89
2024/01/25 07:12:12;;;;;;;0.10;0.10;;;;;;;;;;5011614;28;20030;-90
2024/01/25 07:14:38;;;;;;;0.10;0.10;;;;;;;;;;5009964;28;20026;-91
2024/01/25 07:17:04;;;;;;;0.10;0.10;;;;;;;;;;5009371;28;20021;-91
2024/01/25 07:19:30;;;;;;;0.10;0.10;;;;;;;;;;5020591;28;20379;-91
2024/01/25 07:21:56;;;;;;;0.00;0.00;;;;;;;;;;5011483;28;20034;-91
2024/01/25 07:24:22;;;;;;;0.10;0.10;;;;;;;;;;5007050;28;20064;-90
2024/01/25 07:26:48;;;;;;;0.10;0.10;;;;;;;;;;5010654;28;20038;-88
2024/01/25 07:29:14;;;;;;;0.10;0.10;;;;;;;;;;5011317;28;20352;-91
2024/01/25 07:31:40;;;;;;;0.10;0.10;;;;;;;;;;5012761;28;20400;-91
2024/01/25 07:34:06;;;;;;;0.10;0.10;;;;;;;;;;5006604;28;20485;-90
2024/01/25 07:36:32;;;;;;;0.10;0.10;;;;;;;;;;5008210;28;20103;-91
2024/01/25 07:38:57;;;;;;;0.10;0.10;;;;;;;;;;5012329;28;20076;-90
2024/01/25 07:41:23;;;;;;;0.10;0.10;;;;;;;;;;5011447;28;20093;-91
2024/01/25 07:43:49;;;;;;;0.10;0.10;;;;;;;;;;5012607;28;20034;-90
2024/01/25 07:46:15;;;;;;;0.10;0.10;;;;;;;;;;5011797;28;20419;-89
2024/01/25 07:48:41;;;;;;;0.10;0.10;;;;;;;;;;5010156;28;20022;-90
2024/01/25 07:51:13;;;;;;;0.08;0.08;;;6.60;99.90;;;;;;5027427;28;20037;-91
2024/01/25 07:53:39;;;;;;;0.10;0.10;;;;;;;;;;5009284;28;20026;-89
2024/01/25 07:56:09;;;;;;;0.10;0.10;;;6.70;99.90;;;;;;5010060;28;20022;-89
2024/01/25 07:58:36;;;;;;;0.10;0.10;;;6.70;99.90;;;;;;5002500;28;20030;-90
2024/01/25 08:01:05;;;;;;;0.10;0.10;;;6.70;99.90;;;;;;4999875;28;20057;-91
2024/01/25 08:03:31;;;;;;;0.00;0.00;;;;;;;;;;5006553;28;20623;-91
2024/01/25 08:05:57;;;;;;;0.00;0.00;;;;;;;;;;5007943;28;20084;-91
2024/01/25 08:08:23;;;;;;;0.10;0.10;;;;;;;;;;5007719;28;20033;-90
2024/01/25 08:10:49;;;;;;;0.10;0.10;;;;;;;;;;5003233;28;20045;-91
2024/01/25 08:13:15;;;;;;;0.10;0.10;;;;;;;;;;5008639;28;20027;-91
2024/01/25 08:15:41;;;;;;;0.03;0.03;;;;;;;;;;5007121;28;20037;-90
2024/01/25 08:18:07;;;;;;;0.10;0.10;;;;;;;;;;5009262;28;20452;-90
2024/01/25 08:20:33;;;;;;;0.08;0.08;;;;;;;;;;5001176;28;20124;-92
2024/01/25 08:22:59;;;;;;;0.03;0.03;;;;;;;;;;4996413;28;20133;-92
2024/01/25 08:25:26;;;;;;;0.10;0.10;;;;;;;;;;5007263;28;20052;-91
2024/01/25 08:27:52;;;;;;;0.10;0.10;;;;;;;;;;5012541;28;20091;-91
2024/01/25 08:30:18;;;;;;;0.10;0.10;;;;;;;;;;5005806;28;20128;-87
2024/01/25 08:32:44;;;;;;;0.10;0.10;;;;;;;;;;5012229;28;20033;-91
2024/01/25 08:35:10;;;;;;;0.08;0.08;;;;;;;;;;5015421;28;20109;-91
2024/01/25 08:37:37;;;;;;;0.10;0.10;;;;;;;;;;5015251;28;20061;-91
2024/01/25 08:40:05;;;;;;;0.10;0.10;;;;;;;;;;5010158;28;20044;-90
2024/01/25 08:42:31;;;;;;;0.05;0.05;;;;;;;;;;5008168;28;20033;-90
2024/01/25 08:44:57;;;;;;;0.10;0.10;;;;;;;;;;5012406;28;20516;-92
2024/01/25 08:47:23;;;;;;;0.10;0.10;;;;;;;;;;5009649;28;20350;-92
2024/01/25 08:49:49;;;;;;;0.10;0.10;;;;;;;;;;5007984;28;20532;-91
2024/01/25 08:52:15;;;;;;;0.10;0.10;;;;;;;;;;5009750;28;20816;-91
2024/01/25 08:54:42;;;;;;;0.10;0.10;;;7.30;99.90;;;;;;5009428;28;20137;-91
2024/01/25 08:57:08;;;;;;;0.10;0.10;;;;;;;;;;5006297;28;20030;-91
2024/01/25 08:59:37;;;;;;;0.10;0.10;;;7.30;99.90;;;;;;5007540;28;20027;-90
2024/01/25 09:02:04;;;;;;;0.10;0.10;;;;;;;;;;5008388;28;20116;-90
2024/01/25 09:04:29;;;;;;;0.10;0.10;;;;;;;;;;5012080;28;20057;-91
2024/01/25 09:06:55;;;;;;;0.10;0.10;;;;;;;;;;5013733;28;20061;-90
2024/01/25 09:09:21;;;;;;;0.10;0.10;;;;;;;;;;5008621;28;20540;-91
2024/01/25 09:11:47;;;;;;;0.10;0.10;;;;;;;;;;5009363;28;20129;-89
2024/01/25 09:14:13;;;;;;;0.10;0.10;;;;;;;;;;5006900;28;20554;-90
2024/01/25 09:16:39;;;;;;;0.10;0.10;;;;;;;;;;5007519;28;20034;-92
2024/01/25 09:19:05;;;;;;;0.10;0.10;;;;;;;;;;5048516;28;20033;-92
2024/01/25 09:21:31;;;;;;;0.10;0.10;;;;;;;;;;5032772;28;20103;-92
2024/01/25 09:23:57;;;;;;;0.10;0.10;;;;;;;;;;5006650;28;20036;-90
2024/01/25 09:26:23;;;;;;;0.10;0.10;;;;;;;;;;5010234;28;20043;-90
2024/01/25 09:28:49;;;;;;;0.10;0.10;;;;;;;;;;5004890;28;20033;-90
2024/01/25 09:31:15;;;;;;;0.00;0.00;;;;;;;;;;5015587;28;20520;-90
2024/01/25 09:33:41;;;;;;;0.05;0.05;;;;;;;;;;5018747;28;20033;-90
2024/01/25 09:36:07;;;;;;;0.10;0.10;;;;;;;;;;5014908;28;20032;-91
2024/01/25 09:38:33;;;;;;;0.10;0.10;;;;;;;;;;5002159;28;20030;-90
2024/01/25 09:41:00;;;;;;;0.10;0.10;;;;;;;;;;5005703;28;20033;-90
2024/01/25 09:43:27;;;;;;;0.00;0.00;;;;;;;;;;5018649;28;20026;-91
2024/01/25 09:45:56;;;;;;;0.00;0.00;;;;;;;;;;5006423;28;20433;-91
2024/01/25 09:48:22;;;;;;;0.10;0.10;;;;;;;;;;5018662;28;20032;-92
2024/01/25 09:50:48;;;;;;;0.10;0.10;;;;;;;;;;5022513;28;20069;-90
2024/01/25 09:53:36;;;;;;;;;;;;;;;;;;;;;
2024/01/25 09:56:08;;;;;;;0.10;0.10;;;7.60;99.90;;;;;;5000501;28;20022;-91
2024/01/25 09:58:37;;;;;;;0.10;0.10;;;7.70;99.90;;;;;;5012422;28;20030;-90
2024/01/25 10:01:03;;;;;;;0.00;0.00;;;;;;;;;;5014735;28;20025;-90
2024/01/25 10:03:30;;;;;;;0.00;0.00;;;;;;;;;;5020027;28;20497;-90
2024/01/25 10:05:56;;;;;;;0.00;0.00;;;;;;;;;;5008021;28;20068;-90
2024/01/25 10:08:23;;;;;;;0.10;0.10;;;;;;;;;;5003291;28;20053;-89
2024/01/25 10:10:50;;;;;;;0.10;0.10;;;;;;;;;;5008565;28;20109;-91
2024/01/25 10:13:15;;;;;;;0.00;0.00;;;;;;;;;;5009144;28;20080;-90
2024/01/25 10:15:44;;;;;;;0.10;0.10;;;;;;;;;;5007371;28;20037;-90
2024/01/25 10:18:13;;;;;;;0.10;0.10;;;;;;;;;;5011622;28;20034;-90
2024/01/25 10:20:40;;;;;;;0.00;0.00;;;8.40;99.90;;;;;;4998781;28;20034;-91
2024/01/25 10:23:06;;;;;;;0.00;0.00;;;;;;;;;;5006624;28;20075;-91
2024/01/25 10:25:34;;;;;;;0.10;0.10;;;8.40;99.90;;;;;;5011045;28;20026;-90
2024/01/25 10:28:00;;;;;;;0.00;0.00;;;;;;;;;;5027039;28;20033;-90
2024/01/25 10:30:27;;;;;;;0.10;0.10;;;8.40;99.90;;;;;;5005436;28;20447;-90
2024/01/25 10:32:54;;;;;;;0.10;0.10;;;8.30;99.90;;;;;;5012718;28;20022;-90
2024/01/25 10:35:20;;;;;;;0.10;0.10;;;8.30;99.90;;;;;;5011084;28;20041;-89
2024/01/25 10:37:47;;;;;;;0.10;0.10;;;;;;;;;;5008470;28;20037;-90
2024/01/25 10:40:14;;;;;;;0.00;0.00;;;8.30;99.90;;;;;;5003795;28;20110;-89
2024/01/25 10:42:40;;;;;;;0.00;0.00;;;;;;;;;;5009983;28;20257;-90
2024/01/25 10:45:07;;;;;;;0.00;0.00;;;8.60;99.90;;;;;;5010942;28;20116;-89
2024/01/25 10:47:35;;;;;;;0.00;0.00;;;;;;;;;;5014334;28;20490;-91
2024/01/25 10:50:02;;;;;;;0.00;0.00;;;;;;;;;;5009358;28;20186;-91
2024/01/25 10:52:28;;;;;;;0.10;0.10;;;;;;;;;;5010808;28;20141;-89
2024/01/25 10:54:54;;;;;;;0.00;0.00;;;;;;;;;;5011798;28;20029;-90
2024/01/25 10:57:20;;;;;;;0.10;0.10;;;;;;;;;;5013540;28;20040;-90
2024/01/25 10:59:46;;;;;;;0.00;0.00;;;;;;;;;;5008175;28;20101;-90
2024/01/25 11:02:12;;;;;;;0.00;0.00;;;;;;;;;;5010295;28;20038;-87
2024/01/25 11:04:38;;;;;;;0.00;0.00;;;;;;;;;;5007593;28;20459;-89
2024/01/25 11:07:08;;;;;;;0.10;0.10;;;10.10;99.90;;;;;;5011150;28;20049;-90
2024/01/25 11:09:36;;;;;;;0.00;0.00;;;8.50;99.90;;;;;;5009796;28;20117;-89
2024/01/25 11:12:15;;;;;;;0.00;0.00;;;8.40;99.90;;;;;;5005829;28;20061;-89
2024/01/25 11:14:42;;;;;;;0.00;0.00;;;;;;;;;;5008090;28;20041;-90
2024/01/25 11:17:21;;;;;;;0.00;0.00;;;8.40;99.90;;;;;;5016073;28;20040;-90
2024/01/25 11:19:49;;;;;;;0.00;0.00;;;8.20;99.90;;;;;;5008844;28;20033;-90
2024/01/25 11:22:15;;;;;;;0.00;0.00;;;;;;;;;;5006086;28;20113;-90
2024/01/25 11:24:42;;;;;;;0.00;0.00;;;;;;;;;;5007550;28;20133;-90
2024/01/25 11:27:10;;;;;;;0.00;0.00;;;8.20;99.90;;;;;;5013183;28;20044;-90
2024/01/25 11:29:36;;;;;;;0.00;0.00;;;;;;;;;;5012056;28;20037;-91
2024/01/25 11:32:04;;;;;;;0.10;0.10;;;8.20;99.90;;;;;;5008392;28;20069;-90
2024/01/25 11:34:31;;;;;;;0.10;0.10;;;;;;;;;;5005280;28;20030;-91
2024/01/25 11:37:00;;;;;;;0.00;0.00;;;;;;;;;;5009485;28;20511;-90
2024/01/25 11:39:26;;;;;;;0.10;0.10;;;;;;;;;;5012063;28;20091;-90
2024/01/25 11:41:52;;;;;;;0.00;0.00;;;;;;;;;;5005455;28;20038;-89
2024/01/25 11:44:18;;;;;;;0.10;0.10;;;;;;;;;;5014614;28;20041;-90
2024/01/25 11:46:44;;;;;;;0.00;0.00;;;8.60;99.90;;;;;;5013184;28;20018;-90
2024/01/25 11:49:10;;;;;;;0.05;0.05;;;;;;;;;;5012102;28;20492;-90
2024/01/25 11:51:36;;;;;;;0.10;0.10;;;;;;;;;;5014848;28;20033;-90
2024/01/25 11:54:05;;;;;;;0.10;0.10;;;;;;;;;;5007797;28;20913;-91
2024/01/25 11:56:33;;;;;;;0.00;0.00;;;8.30;99.90;;;;;;5003366;28;20034;-90
2024/01/25 11:58:59;;;;;;;0.00;0.00;;;;;;;;;;5009729;28;20396;-90
2024/01/25 12:01:25;;;;;;;0.00;0.00;;;8.40;99.90;;;;;;5002843;28;20034;-90
2024/01/25 12:03:51;;;;;;;0.10;0.10;;;;;;;;;;5005057;28;20116;-90
2024/01/25 12:06:18;;;;;;;0.05;0.05;;;;;;;;;;5009836;28;20040;-90
2024/01/25 12:08:44;;;;;;;0.00;0.00;;;8.40;99.90;;;;;;5008364;28;20041;-89
2024/01/25 12:11:11;;;;;;;0.10;0.10;;;;;;;;;;5012911;28;20034;-90
2024/01/25 12:13:39;;;;;;;0.00;0.00;;;8.40;99.90;;;;;;5011957;28;20030;-91
2024/01/25 12:16:05;;;;;;;0.00;0.00;;;8.50;99.90;;;;;;5011690;28;20037;-90
2024/01/25 12:18:32;;;;;;;0.10;0.10;;;;;;;;;;5016660;28;20117;-90
2024/01/25 12:20:59;;;;;;;0.00;0.00;;;8.60;99.90;;;;;;5015587;28;20083;-90
2024/01/25 12:23:31;;;;;;;0.10;0.10;;;8.60;99.90;;;;;;5008074;28;20022;-90
2024/01/25 12:25:59;;;;;;;0.00;0.00;;;8.80;99.90;;;;;;5008113;28;20508;-90
2024/01/25 12:28:27;;;;;;;0.00;0.00;;;8.90;99.90;;;;;;5004760;28;20489;-90
2024/01/25 12:30:53;;;;;;;0.10;0.10;;;;;;;;;;5006095;28;20053;-90
2024/01/25 12:33:19;;;;;;;0.00;0.00;;;;;;;;;;5009541;28;20479;-90
2024/01/25 12:35:45;;;;;;;0.00;0.00;;;;;;;;;;5008765;28;20037;-89
2024/01/25 12:38:11;;;;;;;0.10;0.10;;;;;;;;;;5009120;28;20095;-90
2024/01/25 12:40:37;;;;;;;0.00;0.00;;;;;;;;;;5010506;28;20389;-90
2024/01/25 12:43:03;;;;;;;0.05;0.05;;;;;;;;;;5010219;28;20034;-90
2024/01/25 12:45:29;;;;;;;0.00;0.00;;;;;;;;;;5013061;28;20087;-90
2024/01/25 12:47:55;;;;;;;0.08;0.08;;;;;;;;;;5014376;28;20034;-90
2024/01/25 12:50:21;;;;;;;0.00;0.00;;;;;;;;;;5008355;28;20026;-91
2024/01/25 12:52:47;;;;;;;0.00;0.00;;;;;;;;;;5006377;28;20034;-90
2024/01/25 12:55:12;;;;;;;0.00;0.00;;;;;;;;;;5012448;28;20057;-90
2024/01/25 12:57:38;;;;;;;0.00;0.00;;;;;;;;;;5023935;28;20495;-90
2024/01/25 13:00:04;;;;;;;0.00;0.00;;;8.80;99.90;;;;;;5013080;28;20034;-90
2024/01/25 13:02:31;;;;;;;0.00;0.00;;;;;;;;;;5011407;28;20032;-90
2024/01/25 13:04:56;;;;;;;0.00;0.00;;;;;;;;;;5011875;28;20034;-90
2024/01/25 13:07:22;;;;;;;0.00;0.00;;;;;;;;;;5009208;28;20052;-91
2024/01/25 13:09:48;;;;;;;0.10;0.10;;;;;;;;;;5008753;28;20105;-91
2024/01/25 13:12:14;;;;;;;0.00;0.00;;;;;;;;;;5010081;28;20041;-92
2024/01/25 13:14:40;;;;;;;0.00;0.00;;;;;;;;;;5015923;28;20052;-90
2024/01/25 13:17:07;;;;;;;0.10;0.10;;;8.70;99.90;;;;;;5014367;28;20064;-90
2024/01/25 13:19:33;;;;;;;0.00;0.00;;;;;;;;;;5010934;28;20358;-90
2024/01/25 13:21:59;;;;;;;0.00;0.00;;;;;;;;;;5014323;28;20044;-90
2024/01/25 13:24:25;;;;;;;0.00;0.00;;;;;;;;;;5015686;28;20034;-89
2024/01/25 13:26:51;;;;;;;0.00;0.00;;;;;;;;;;5009385;28;20034;-90
2024/01/25 13:29:17;;;;;;;0.00;0.00;;;;;;;;;;5012771;28;20072;-90
2024/01/25 13:31:43;;;;;;;0.10;0.10;;;;;;;;;;5011996;28;20500;-89
2024/01/25 13:34:09;;;;;;;0.00;0.00;;;;;;;;;;5011889;28;20037;-89
2024/01/25 13:36:35;;;;;;;0.00;0.00;;;;;;;;;;5012850;28;20029;-89
2024/01/25 13:39:01;;;;;;;0.00;0.00;;;;;;;;;;5014910;28;20030;-90
2024/01/25 13:41:27;;;;;;;0.00;0.00;;;8.60;99.90;;;;;;5013112;28;20053;-89
2024/01/25 13:43:53;;;;;;;0.00;0.00;;;;;;;;;;5010730;28;20132;-89
2024/01/25 13:46:19;;;;;;;0.10;0.10;;;;;;;;;;5014457;28;20034;-89
2024/01/25 13:48:45;;;;;;;0.10;0.10;;;;;;;;;;5011425;28;20117;-87
2024/01/25 13:51:11;;;;;;;0.05;0.05;;;;;;;;;;5006647;28;20414;-89
2024/01/25 13:53:37;;;;;;;0.00;0.00;;;;;;;;;;5011155;28;20044;-90
2024/01/25 13:56:03;;;;;;;0.00;0.00;;;;;;;;;;5009369;28;20120;-90
2024/01/25 13:58:29;;;;;;;0.00;0.00;;;;;;;;;;5009008;28;20060;-89
2024/01/25 14:00:55;;;;;;;0.00;0.00;;;;;;;;;;5011806;28;20059;-89
2024/01/25 14:03:21;;;;;;;0.00;0.00;;;;;;;;;;5010978;28;20026;-89
2024/01/25 14:05:47;;;;;;;0.00;0.00;;;;;;;;;;5014460;28;20026;-90
2024/01/25 14:08:13;;;;;;;0.10;0.10;;;;;;;;;;5012324;28;20026;-89
2024/01/25 14:10:39;;;;;;;0.10;0.10;;;;;;;;;;5015864;28;20022;-89
2024/01/25 14:13:04;;;;;;;0.00;0.00;;;8.00;99.90;;;;;;5017269;28;20101;-90
2024/01/25 14:15:30;;;;;;;0.03;0.03;;;;;;;;;;5010180;28;20083;-91
2024/01/25 14:17:56;;;;;;;0.10;0.10;;;8.20;99.90;;;;;;5008097;28;20386;-89
2024/01/25 14:20:22;;;;;;;0.00;0.00;;;;;;;;;;5010146;28;20030;-89
2024/01/25 14:22:48;;;;;;;0.10;0.10;;;;;;;;;;5009826;28;20041;-89
2024/01/25 14:25:14;;;;;;;0.00;0.00;;;;;;;;;;5007705;28;20032;-90
2024/01/25 14:27:40;;;;;;;0.10;0.10;;;;;;;;;;5003201;28;20098;-90
2024/01/25 14:30:07;;;;;;;0.00;0.00;;;7.90;99.90;;;;;;5008967;28;20110;-90
2024/01/25 14:32:33;;;;;;;0.10;0.10;;;;;;;;;;5010735;28;20160;-88
2024/01/25 14:34:58;;;;;;;0.00;0.00;;;;;;;;;;5006241;28;20544;-89
2024/01/25 14:37:25;;;;;;;0.00;0.00;;;;;;;;;;5006509;28;20408;-90
2024/01/25 14:39:50;;;;;;;0.00;0.00;;;;;;;;;;5014121;28;20041;-90
2024/01/25 14:42:16;;;;;;;0.10;0.10;;;;;;;;;;5007946;28;20034;-91
2024/01/25 14:44:45;;;;;;;0.00;0.00;;;7.70;99.90;;;;;;5011135;28;20104;-89
2024/01/25 14:47:12;;;;;;;0.00;0.00;;;;;;;;;;5023174;28;20033;-88
2024/01/25 14:49:38;;;;;;;0.10;0.10;;;;;;;;;;5007157;28;20109;-91
2024/01/25 14:52:04;;;;;;;0.05;0.05;;;;;;;;;;5007108;28;20132;-91